Time;durP1;ratioP1;P1;durP2;ratioP2;P2;SDS_P1;SDS_P2;PMS_P1;PMS_P2;Temp;Humidity;BMP_temperature;BMP_pressure;BME280_temperature;BME280_humidity;BME280_pressure;Samples;Min_cycle;Max_cycle;Signal;HPM_P1;HPM_P2
2021/12/10 00:02:01;;;;;;;27.58;11.43;;;3.60;99.90;;;;;;5040946;28;20033;-77
2021/12/10 00:04:31;;;;;;;22.00;11.88;;;3.50;99.90;;;;;;5038476;28;20075;-77
2021/12/10 00:07:06;;;;;;;25.05;11.25;;;3.50;99.90;;;;;;5041551;28;20368;-77
2021/12/10 00:09:44;;;;;;;25.75;13.13;;;3.50;99.90;;;;;;5032635;28;20036;-77
2021/12/10 00:12:21;;;;;;;25.70;12.10;;;3.40;99.90;;;;;;5045443;28;20075;-77
2021/12/10 00:14:47;;;;;;;27.50;11.95;;;3.40;99.90;;;;;;5043960;28;20028;-77
2021/12/10 00:17:15;;;;;;;25.77;12.23;;;3.40;99.90;;;;;;5046735;28;20097;-76
2021/12/10 00:19:48;;;;;;;29.90;13.45;;;3.30;99.90;;;;;;5045562;28;20029;-77
2021/12/10 00:22:41;;;;;;;30.33;13.65;;;3.30;99.90;;;;;;5046236;28;20029;-77
2021/12/10 00:25:12;;;;;;;31.52;13.90;;;3.30;99.90;;;;;;5046924;28;20119;-77
2021/12/10 00:27:38;;;;;;;30.23;13.85;;;3.20;99.90;;;;;;5050461;28;20036;-77
2021/12/10 00:30:24;;;;;;;24.40;13.05;;;3.20;99.90;;;;;;5044070;28;20036;-77
2021/12/10 00:33:10;;;;;;;36.25;15.15;;;3.20;99.90;;;;;;5044794;28;20029;-78
2021/12/10 00:35:37;;;;;;;26.60;13.70;;;3.10;99.90;;;;;;5049459;28;20028;-78
2021/12/10 00:38:03;;;;;;;25.95;15.52;;;3.20;99.90;;;;;;5044701;28;20426;-78
2021/12/10 00:40:29;;;;;;;25.83;14.90;;;3.10;99.90;;;;;;5041440;28;20029;-78
2021/12/10 00:42:55;;;;;;;37.03;17.00;;;3.20;99.90;;;;;;5041515;28;20040;-78
2021/12/10 00:45:21;;;;;;;31.02;15.13;;;3.30;99.90;;;;;;5042533;28;20033;-77
2021/12/10 00:47:48;;;;;;;25.33;14.00;;;3.30;99.90;;;;;;5044623;28;20022;-78
2021/12/10 00:50:18;;;;;;;28.67;15.20;;;3.40;99.90;;;;;;5049967;28;20045;-77
2021/12/10 00:52:45;;;;;;;33.75;14.75;;;3.40;99.90;;;;;;5047969;28;20021;-77
2021/12/10 00:55:11;;;;;;;31.52;13.48;;;3.50;99.90;;;;;;5048782;28;20391;-77
2021/12/10 00:57:38;;;;;;;29.65;15.20;;;3.50;99.90;;;;;;5042646;28;20554;-77
2021/12/10 01:00:08;;;;;;;29.35;13.73;;;3.50;99.90;;;;;;5040204;28;20029;-77
2021/12/10 01:02:34;;;;;;;29.50;14.48;;;3.60;99.90;;;;;;5043633;28;20466;-77
2021/12/10 01:05:00;;;;;;;31.25;14.88;;;3.60;99.90;;;;;;5039015;28;20025;-77
2021/12/10 01:07:32;;;;;;;23.60;12.85;;;3.60;99.90;;;;;;5043677;28;20017;-76
2021/12/10 01:10:00;;;;;;;25.23;12.68;;;3.60;99.90;;;;;;5043792;28;20137;-76
2021/12/10 01:12:32;;;;;;;24.42;12.00;;;3.50;99.90;;;;;;5049298;28;20036;-76
2021/12/10 01:15:37;;;;;;;;;;;3.50;99.90;;;;;;5042987;28;20052;-76
2021/12/10 01:23:54;;;;;;;19.60;10.45;;;3.20;99.90;;;;;;5046239;28;20044;-76
2021/12/10 01:27:08;;;;;;;18.38;10.25;;;3.20;99.90;;;;;;5037819;28;20032;-77
2021/12/10 01:29:30;;;;;;;23.67;9.63;;;3.20;99.90;;;;;;5044413;28;20037;-77
2021/12/10 01:31:57;;;;;;;17.90;9.80;;;3.10;99.90;;;;;;5042279;28;20075;-77
2021/12/10 01:34:23;;;;;;;21.33;8.82;;;3.00;99.90;;;;;;5041191;28;20025;-77
2021/12/10 01:36:49;;;;;;;18.90;8.88;;;3.10;99.90;;;;;;5038813;28;20021;-77
2021/12/10 01:39:21;;;;;;;18.17;8.52;;;3.00;99.90;;;;;;5046239;28;20478;-77
2021/12/10 01:41:55;;;;;;;15.85;8.10;;;3.00;99.90;;;;;;5038870;28;20089;-77
2021/12/10 01:44:30;;;;;;;16.90;8.65;;;3.00;99.90;;;;;;5045926;28;20427;-77
2021/12/10 01:46:59;;;;;;;20.08;7.50;;;3.00;99.90;;;;;;5042344;28;20486;-77
2021/12/10 01:49:25;;;;;;;20.50;9.57;;;2.90;99.90;;;;;;5043954;28;20029;-77
2021/12/10 01:51:51;;;;;;;22.40;8.88;;;2.90;99.90;;;;;;5048854;28;20041;-78
2021/12/10 01:54:27;;;;;;;16.77;8.90;;;2.90;99.90;;;;;;5039190;28;20031;-77
2021/12/10 01:56:56;;;;;;;20.10;9.57;;;2.80;99.90;;;;;;5044032;28;20043;-77
2021/12/10 01:59:24;;;;;;;16.90;8.48;;;2.80;99.90;;;;;;5046711;28;20049;-77
2021/12/10 02:01:53;;;;;;;14.40;7.63;;;2.80;99.90;;;;;;5036953;28;20025;-77
2021/12/10 02:04:22;;;;;;;15.88;8.27;;;2.80;99.90;;;;;;5046661;28;20025;-76
2021/12/10 02:06:49;;;;;;;16.35;8.75;;;2.70;99.90;;;;;;5043993;28;20025;-76
2021/12/10 02:09:15;;;;;;;15.93;8.18;;;2.70;99.90;;;;;;5039784;28;20029;-77
2021/12/10 02:11:41;;;;;;;18.55;7.85;;;2.70;99.90;;;;;;5042575;28;20044;-76
2021/12/10 02:14:07;;;;;;;18.58;8.40;;;2.70;99.90;;;;;;5044576;28;20025;-77
2021/12/10 02:16:32;;;;;;;17.33;7.43;;;2.60;99.90;;;;;;5043817;28;20467;-76
2021/12/10 02:18:58;;;;;;;22.38;8.77;;;2.60;99.90;;;;;;5041005;28;20068;-77
2021/12/10 02:21:26;;;;;;;17.35;8.77;;;2.60;99.90;;;;;;5042813;28;20035;-77
2021/12/10 02:23:57;;;;;;;19.23;8.10;;;2.60;99.90;;;;;;5039677;28;20029;-77
2021/12/10 02:26:27;;;;;;;17.33;7.18;;;2.50;99.90;;;;;;5040870;28;20411;-77
2021/12/10 02:28:53;;;;;;;13.35;7.28;;;2.60;99.90;;;;;;5043637;28;20025;-77
2021/12/10 02:31:19;;;;;;;12.02;6.35;;;2.50;99.90;;;;;;5043963;28;20040;-77
2021/12/10 02:33:45;;;;;;;13.93;6.55;;;2.60;99.90;;;;;;5037820;28;20021;-77
2021/12/10 02:36:12;;;;;;;14.30;5.68;;;2.50;99.90;;;;;;5040450;28;20025;-77
2021/12/10 02:38:50;;;;;;;12.57;5.63;;;2.50;99.90;;;;;;5045997;28;20028;-77
2021/12/10 02:41:21;;;;;;;10.73;5.65;;;2.60;99.90;;;;;;5047512;28;20120;-77
2021/12/10 02:43:47;;;;;;;13.55;5.75;;;2.50;99.90;;;;;;5038556;28;20391;-77
2021/12/10 02:46:13;;;;;;;18.40;5.78;;;2.50;99.90;;;;;;5042365;28;20025;-77
2021/12/10 02:48:39;;;;;;;15.80;6.50;;;2.50;99.90;;;;;;5039060;28;20025;-77
2021/12/10 02:51:06;;;;;;;19.45;5.72;;;2.50;99.90;;;;;;5041579;28;20049;-77
2021/12/10 02:53:38;;;;;;;13.20;5.00;;;2.50;99.90;;;;;;5044576;28;20021;-77
2021/12/10 02:56:04;;;;;;;16.20;5.30;;;2.50;99.90;;;;;;5039410;28;20024;-76
2021/12/10 02:58:30;;;;;;;12.10;4.53;;;2.50;99.90;;;;;;5043264;28;20078;-77
2021/12/10 03:01:01;;;;;;;13.20;5.00;;;2.50;99.90;;;;;;5037319;28;20393;-77
2021/12/10 03:03:27;;;;;;;7.15;4.18;;;2.50;99.90;;;;;;5040931;28;20044;-77
2021/12/10 03:05:53;;;;;;;10.63;4.80;;;2.50;99.90;;;;;;5043346;28;20021;-76
2021/12/10 03:08:19;;;;;;;13.93;4.55;;;2.50;99.90;;;;;;5045492;28;21140;-75
2021/12/10 03:10:45;;;;;;;17.13;5.15;;;2.50;99.90;;;;;;5043769;28;20032;-77
2021/12/10 03:13:11;;;;;;;9.07;4.22;;;2.60;99.90;;;;;;5036003;28;20084;-77
2021/12/10 03:15:37;;;;;;;18.10;5.65;;;2.60;99.90;;;;;;5039812;28;20025;-76
2021/12/10 03:18:09;;;;;;;9.77;3.60;;;2.60;99.90;;;;;;5044792;28;20536;-77
2021/12/10 03:20:35;;;;;;;11.90;4.93;;;2.60;99.90;;;;;;5034800;28;20071;-77
2021/12/10 03:23:04;;;;;;;7.80;3.78;;;2.60;99.90;;;;;;5035968;28;20097;-76
2021/12/10 03:25:30;;;;;;;13.00;4.70;;;2.60;99.90;;;;;;5041448;28;20103;-77
2021/12/10 03:27:55;;;;;;;12.77;4.20;;;2.60;99.90;;;;;;5040262;28;20510;-77
2021/12/10 03:30:26;;;;;;;11.70;4.18;;;2.50;99.90;;;;;;5035723;28;20059;-77
2021/12/10 03:32:51;;;;;;;12.30;4.45;;;2.60;99.90;;;;;;5045075;28;20100;-77
2021/12/10 03:35:31;;;;;;;11.45;5.18;;;2.60;99.90;;;;;;5048164;28;20151;-77
2021/12/10 03:37:59;;;;;;;15.07;5.15;;;2.60;99.90;;;;;;5045981;28;20036;-77
2021/12/10 03:40:25;;;;;;;16.98;5.63;;;2.60;99.90;;;;;;5036496;28;20110;-77
2021/12/10 03:42:58;;;;;;;17.25;6.00;;;2.60;99.90;;;;;;5043428;28;20077;-77
2021/12/10 03:45:25;;;;;;;12.60;5.10;;;2.60;99.90;;;;;;5039145;28;20057;-77
2021/12/10 03:47:50;;;;;;;9.15;4.43;;;2.60;99.90;;;;;;5037700;28;20025;-77
2021/12/10 03:50:24;;;;;;;13.93;4.75;;;2.60;99.90;;;;;;5041720;28;20049;-77
2021/12/10 03:52:49;;;;;;;11.15;4.75;;;2.60;99.90;;;;;;5038692;28;20017;-77
2021/12/10 03:55:15;;;;;;;9.77;3.67;;;2.60;99.90;;;;;;5042576;28;20067;-77
2021/12/10 03:57:41;;;;;;;13.80;4.63;;;2.60;99.90;;;;;;5038262;28;20030;-77
2021/12/10 04:00:08;;;;;;;14.35;4.13;;;2.60;99.90;;;;;;5041270;28;20084;-76
2021/12/10 04:02:34;;;;;;;12.63;4.18;;;2.50;99.90;;;;;;5035217;28;20394;-77
2021/12/10 04:04:59;;;;;;;13.85;4.38;;;2.60;99.90;;;;;;5042985;28;20029;-77
2021/12/10 04:07:26;;;;;;;10.10;4.07;;;2.60;99.90;;;;;;5044334;28;20080;-77
2021/12/10 04:09:53;;;;;;;10.75;3.92;;;2.60;99.90;;;;;;5040120;28;20029;-76
2021/12/10 04:12:19;;;;;;;10.27;3.92;;;2.60;99.90;;;;;;5042966;28;20029;-77
2021/12/10 04:14:47;;;;;;;9.10;3.70;;;2.60;99.90;;;;;;5046208;28;20029;-77
2021/12/10 04:17:15;;;;;;;9.48;3.95;;;2.60;99.90;;;;;;5046518;28;20022;-77
2021/12/10 04:19:41;;;;;;;8.30;4.03;;;2.70;99.90;;;;;;5040194;28;20018;-76
2021/12/10 04:22:09;;;;;;;10.57;4.35;;;2.70;99.90;;;;;;5035835;28;20034;-77
2021/12/10 04:24:37;;;;;;;12.73;3.58;;;2.70;99.90;;;;;;5042629;28;20032;-76
2021/12/10 04:27:05;;;;;;;10.40;3.20;;;2.60;99.90;;;;;;5038897;28;20085;-77
2021/12/10 04:29:31;;;;;;;8.32;3.28;;;2.60;99.90;;;;;;5040200;28;21025;-77
2021/12/10 04:31:58;;;;;;;11.00;3.15;;;2.60;99.90;;;;;;5044047;28;20029;-76
2021/12/10 04:34:26;;;;;;;11.68;3.67;;;2.70;99.90;;;;;;5044005;28;20398;-77
2021/12/10 04:36:54;;;;;;;12.52;3.35;;;2.60;99.90;;;;;;5043922;28;20029;-77
2021/12/10 04:39:20;;;;;;;10.13;3.40;;;2.70;99.90;;;;;;5037582;28;20036;-77
2021/12/10 04:41:46;;;;;;;6.43;2.08;;;2.60;99.90;;;;;;5043331;28;20396;-77
2021/12/10 04:44:12;;;;;;;5.70;2.13;;;2.60;99.90;;;;;;5042601;28;20511;-77
2021/12/10 04:46:38;;;;;;;6.65;2.03;;;2.70;99.90;;;;;;5032407;28;20438;-77
2021/12/10 04:49:08;;;;;;;8.45;2.17;;;2.70;99.90;;;;;;5038859;28;20058;-77
2021/12/10 04:51:39;;;;;;;13.48;2.60;;;2.70;99.90;;;;;;5032976;28;20188;-77
2021/12/10 04:54:07;;;;;;;10.18;2.25;;;2.70;99.90;;;;;;5037333;28;20378;-77
2021/12/10 04:56:32;;;;;;;11.50;3.08;;;2.80;99.90;;;;;;5040822;28;20029;-77
2021/12/10 04:59:00;;;;;;;6.93;1.90;;;2.80;99.90;;;;;;5047230;28;20112;-76
2021/12/10 05:01:27;;;;;;;6.97;2.13;;;2.80;99.90;;;;;;5048092;28;20388;-76
2021/12/10 05:03:53;;;;;;;17.85;2.50;;;2.80;99.90;;;;;;5050138;28;20025;-76
2021/12/10 05:06:18;;;;;;;16.80;2.13;;;2.80;99.90;;;;;;5041775;28;20088;-76
2021/12/10 05:08:45;;;;;;;9.88;1.98;;;2.90;99.90;;;;;;5045656;28;20029;-76
2021/12/10 05:11:11;;;;;;;12.02;2.15;;;2.90;99.90;;;;;;5040046;28;20022;-76
2021/12/10 05:13:39;;;;;;;9.65;1.77;;;2.90;99.90;;;;;;5041615;28;20087;-76
2021/12/10 05:16:07;;;;;;;10.50;2.15;;;2.90;99.90;;;;;;5038904;28;20033;-77
2021/12/10 05:18:38;;;;;;;7.25;1.40;;;2.90;99.90;;;;;;5045731;28;20032;-76
2021/12/10 05:21:09;;;;;;;7.45;1.95;;;2.90;99.90;;;;;;5045298;28;20021;-76
2021/12/10 05:23:35;;;;;;;6.47;1.50;;;2.90;99.90;;;;;;5040686;28;20383;-77
2021/12/10 05:26:00;;;;;;;8.75;1.55;;;2.90;99.90;;;;;;5039434;28;20033;-74
2021/12/10 05:28:27;;;;;;;9.93;2.00;;;2.90;99.90;;;;;;5046834;28;20040;-75
2021/12/10 05:30:55;;;;;;;11.77;2.90;;;2.90;99.90;;;;;;5037050;28;20033;-75
2021/12/10 05:33:25;;;;;;;6.65;2.05;;;2.90;99.90;;;;;;5045348;28;20017;-74
2021/12/10 05:35:52;;;;;;;8.65;1.90;;;2.90;99.90;;;;;;5041713;28;20063;-74
2021/12/10 05:38:20;;;;;;;10.38;2.38;;;3.00;99.90;;;;;;5036185;28;20013;-74
2021/12/10 05:40:48;;;;;;;10.30;2.38;;;3.00;99.90;;;;;;5044794;28;20386;-74
2021/12/10 05:43:14;;;;;;;8.48;1.50;;;3.10;99.90;;;;;;5040927;28;20033;-77
2021/12/10 05:45:39;;;;;;;5.97;1.13;;;3.10;99.90;;;;;;5048866;28;20028;-77
2021/12/10 05:48:05;;;;;;;6.15;1.05;;;3.20;99.90;;;;;;5046931;28;20631;-77
2021/12/10 05:50:32;;;;;;;7.18;1.42;;;3.20;99.90;;;;;;5046906;28;20057;-77
2021/12/10 05:52:58;;;;;;;9.63;1.92;;;3.20;99.90;;;;;;5053505;28;20021;-77
2021/12/10 05:55:25;;;;;;;7.55;1.38;;;3.30;99.90;;;;;;5042319;28;20028;-77
2021/12/10 05:57:51;;;;;;;8.30;2.47;;;3.30;99.90;;;;;;5049330;28;20021;-77
2021/12/10 06:00:45;;;;;;;9.02;2.28;;;3.30;99.90;;;;;;5051581;28;20032;-77
2021/12/10 06:03:11;;;;;;;14.80;1.48;;;3.30;99.90;;;;;;5042843;28;20459;-77
2021/12/10 06:05:38;;;;;;;16.05;1.63;;;3.30;99.90;;;;;;5040561;28;20383;-78
2021/12/10 06:08:05;;;;;;;10.00;2.00;;;3.30;99.90;;;;;;5037840;28;20029;-77
2021/12/10 06:10:31;;;;;;;10.52;1.73;;;3.30;99.90;;;;;;5040965;28;20071;-77
2021/12/10 06:12:57;;;;;;;8.20;1.92;;;3.30;99.90;;;;;;5051418;28;20021;-78
2021/12/10 06:15:24;;;;;;;6.43;1.85;;;3.30;99.90;;;;;;5036746;28;20026;-77
2021/12/10 06:17:50;;;;;;;11.65;2.15;;;3.20;99.90;;;;;;5043718;28;20029;-77
2021/12/10 06:20:20;;;;;;;7.88;1.52;;;3.20;99.90;;;;;;5045391;28;20100;-77
2021/12/10 06:22:46;;;;;;;6.43;1.48;;;3.20;99.90;;;;;;5046164;28;20033;-77
2021/12/10 06:25:12;;;;;;;11.32;2.05;;;3.20;99.90;;;;;;5040529;28;20028;-77
2021/12/10 06:27:44;;;;;;;12.15;2.10;;;3.20;99.90;;;;;;5039125;28;20341;-74
2021/12/10 06:30:15;;;;;;;6.80;1.80;;;3.10;99.90;;;;;;5041729;28;20021;-74
2021/12/10 06:32:42;;;;;;;6.70;2.20;;;3.20;99.90;;;;;;5043734;28;20021;-74
2021/12/10 06:35:09;;;;;;;9.23;2.47;;;3.20;99.90;;;;;;5045613;28;20434;-74
2021/12/10 06:37:36;;;;;;;8.73;2.42;;;3.20;99.90;;;;;;5043850;28;20045;-75
2021/12/10 06:40:05;;;;;;;7.07;2.45;;;3.20;99.90;;;;;;5043611;28;20029;-74
2021/12/10 06:42:31;;;;;;;7.90;1.63;;;3.20;99.90;;;;;;5041123;28;20033;-75
2021/12/10 06:44:56;;;;;;;9.57;2.20;;;3.30;99.90;;;;;;5042951;28;20110;-76
2021/12/10 06:47:22;;;;;;;12.77;2.45;;;3.30;99.90;;;;;;5042230;28;20368;-77
2021/12/10 06:49:47;;;;;;;8.35;1.95;;;3.30;99.90;;;;;;5044965;28;20047;-77
2021/12/10 06:52:14;;;;;;;6.95;1.85;;;3.30;99.90;;;;;;5042633;28;20027;-77
2021/12/10 06:54:39;;;;;;;8.45;1.73;;;3.30;99.90;;;;;;5050871;28;20021;-78
2021/12/10 06:57:05;;;;;;;5.93;1.67;;;3.40;99.90;;;;;;5052056;28;20486;-78
2021/12/10 06:59:31;;;;;;;10.23;1.50;;;3.40;99.90;;;;;;5047772;28;20474;-77
2021/12/10 07:01:57;;;;;;;11.05;2.17;;;3.40;99.90;;;;;;5050046;28;20032;-77
2021/12/10 07:04:23;;;;;;;9.25;2.08;;;3.40;99.90;;;;;;5042943;28;20592;-77
2021/12/10 07:06:49;;;;;;;12.10;1.95;;;3.50;99.90;;;;;;5051861;28;20123;-77
2021/12/10 07:09:21;;;;;;;10.75;2.95;;;3.40;99.90;;;;;;5051837;28;20021;-77
2021/12/10 07:11:49;;;;;;;10.20;1.98;;;3.50;99.90;;;;;;5051387;28;20535;-77
2021/12/10 07:14:15;;;;;;;13.32;2.35;;;3.40;99.90;;;;;;5042838;28;20440;-77
2021/12/10 07:16:41;;;;;;;12.07;2.08;;;3.40;99.90;;;;;;5051534;28;20052;-77
2021/12/10 07:19:07;;;;;;;7.45;1.80;;;3.40;99.90;;;;;;5051098;28;20044;-77
2021/12/10 07:21:34;;;;;;;8.18;2.20;;;3.40;99.90;;;;;;5049861;28;20032;-77
2021/12/10 07:24:04;;;;;;;8.82;1.80;;;3.40;99.90;;;;;;5050950;28;20064;-77
2021/12/10 07:26:30;;;;;;;11.15;1.83;;;3.40;99.90;;;;;;5050075;28;20494;-77
2021/12/10 07:28:57;;;;;;;10.23;2.20;;;3.40;99.90;;;;;;5042311;28;20029;-77
2021/12/10 07:31:22;;;;;;;9.35;2.92;;;3.40;99.90;;;;;;5036590;28;20074;-77
2021/12/10 07:33:48;;;;;;;8.02;1.23;;;3.40;99.90;;;;;;5040838;28;20101;-77
2021/12/10 07:36:15;;;;;;;13.07;2.35;;;3.40;99.90;;;;;;5036846;28;20021;-76
2021/12/10 07:38:41;;;;;;;11.50;2.03;;;3.40;99.90;;;;;;5043744;28;20025;-76
2021/12/10 07:41:07;;;;;;;8.73;2.05;;;3.50;99.90;;;;;;5049768;28;20044;-77
2021/12/10 07:43:36;;;;;;;8.80;2.00;;;3.50;99.90;;;;;;5052759;28;20103;-77
2021/12/10 07:46:04;;;;;;;13.35;2.42;;;3.50;99.90;;;;;;5053728;28;20134;-76
2021/12/10 07:48:31;;;;;;;7.90;1.63;;;3.50;99.90;;;;;;5051766;28;20021;-76
2021/12/10 07:51:03;;;;;;;13.52;2.20;;;3.60;99.90;;;;;;5043277;28;20114;-77
2021/12/10 07:53:31;;;;;;;10.13;2.10;;;3.60;99.90;;;;;;5051523;28;20057;-77
2021/12/10 07:56:01;;;;;;;8.45;1.55;;;3.60;99.90;;;;;;5047199;28;20108;-76
2021/12/10 07:58:26;;;;;;;6.45;1.45;;;3.60;99.90;;;;;;5049255;28;20017;-77
2021/12/10 08:00:53;;;;;;;11.75;2.38;;;3.60;99.90;;;;;;5048725;28;20091;-77
2021/12/10 08:03:19;;;;;;;11.82;2.10;;;3.70;99.90;;;;;;5049586;28;20498;-77
2021/12/10 08:05:45;;;;;;;7.88;2.00;;;3.70;99.90;;;;;;5050720;28;20029;-77
2021/12/10 08:08:11;;;;;;;10.55;2.20;;;3.70;99.90;;;;;;5049946;28;20034;-77
2021/12/10 08:10:38;;;;;;;11.88;2.33;;;3.70;99.90;;;;;;5050372;28;20083;-77
2021/12/10 08:13:04;;;;;;;6.88;2.35;;;3.70;99.90;;;;;;5050674;28;20025;-77
2021/12/10 08:15:30;;;;;;;11.65;2.50;;;3.70;99.90;;;;;;5050224;28;20017;-77
2021/12/10 08:17:56;;;;;;;12.35;2.83;;;3.80;99.90;;;;;;5050354;28;20541;-77
2021/12/10 08:20:24;;;;;;;13.18;3.22;;;3.80;99.90;;;;;;5044448;28;20040;-77
2021/12/10 08:22:51;;;;;;;13.52;3.15;;;3.80;99.90;;;;;;5049328;28;20032;-77
2021/12/10 08:25:19;;;;;;;11.27;3.15;;;3.80;99.90;;;;;;5049824;28;20029;-77
2021/12/10 08:27:46;;;;;;;15.07;3.20;;;3.90;99.90;;;;;;5048749;28;20053;-77
2021/12/10 08:30:15;;;;;;;8.20;2.60;;;3.90;99.90;;;;;;5051567;28;20033;-77
2021/12/10 08:32:41;;;;;;;9.98;2.95;;;3.90;99.90;;;;;;5048022;28;20032;-77
2021/12/10 08:35:10;;;;;;;14.65;4.05;;;3.90;99.90;;;;;;5055138;28;20132;-77
2021/12/10 08:37:36;;;;;;;10.20;2.70;;;3.90;99.90;;;;;;5052946;28;20021;-77
2021/12/10 08:40:03;;;;;;;10.02;3.72;;;4.00;99.90;;;;;;5053578;28;20405;-77
2021/12/10 08:42:28;;;;;;;11.48;2.88;;;4.00;99.90;;;;;;5040185;28;20029;-77
2021/12/10 08:44:55;;;;;;;11.30;3.30;;;4.00;99.90;;;;;;5054676;28;20048;-77
2021/12/10 08:47:23;;;;;;;10.35;3.13;;;4.00;99.90;;;;;;5051544;28;20033;-76
2021/12/10 08:49:49;;;;;;;10.27;2.95;;;4.00;99.90;;;;;;5053176;28;20025;-76
2021/12/10 08:52:15;;;;;;;10.68;2.60;;;4.00;99.90;;;;;;5048661;28;20422;-76
2021/12/10 08:54:42;;;;;;;10.02;2.78;;;4.00;99.90;;;;;;5045394;28;20024;-77
2021/12/10 08:57:08;;;;;;;10.82;3.20;;;4.10;99.90;;;;;;5053680;28;20036;-76
2021/12/10 08:59:36;;;;;;;12.73;3.50;;;4.10;99.90;;;;;;5053803;28;20410;-76
2021/12/10 09:02:03;;;;;;;11.05;2.90;;;4.10;99.90;;;;;;5052953;28;20032;-77
2021/12/10 09:04:32;;;;;;;11.63;2.85;;;4.10;99.90;;;;;;5052734;28;20045;-77
2021/12/10 09:07:03;;;;;;;9.25;2.92;;;4.10;99.90;;;;;;5048775;28;20065;-77
2021/12/10 09:09:30;;;;;;;9.00;2.72;;;4.20;99.90;;;;;;5052976;28;20092;-77
2021/12/10 09:11:59;;;;;;;7.35;2.40;;;4.20;99.90;;;;;;5053508;28;20029;-77
2021/12/10 09:14:29;;;;;;;12.07;2.42;;;4.20;99.90;;;;;;5053157;28;20036;-75
2021/12/10 09:16:57;;;;;;;10.63;2.17;;;4.20;99.90;;;;;;5050385;28;20033;-75
2021/12/10 09:19:24;;;;;;;8.10;2.53;;;4.30;99.90;;;;;;5053260;28;20029;-75
2021/12/10 09:21:50;;;;;;;8.05;2.33;;;4.30;99.90;;;;;;5053493;28;20036;-75
2021/12/10 09:24:20;;;;;;;9.93;2.20;;;4.30;99.90;;;;;;5052158;28;20491;-75
2021/12/10 09:26:48;;;;;;;9.55;2.08;;;4.30;99.90;;;;;;5053254;28;20082;-75
2021/12/10 09:29:18;;;;;;;7.43;2.70;;;4.30;99.90;;;;;;5053120;28;20021;-75
2021/12/10 09:31:45;;;;;;;9.27;2.28;;;4.40;99.90;;;;;;5051481;28;20021;-75
2021/12/10 09:34:13;;;;;;;13.02;3.15;;;4.40;99.90;;;;;;5052964;28;20390;-76
2021/12/10 09:36:40;;;;;;;12.30;2.35;;;4.50;99.90;;;;;;5047026;28;20478;-75
2021/12/10 09:39:08;;;;;;;11.75;2.05;;;4.50;99.90;;;;;;5051905;28;20166;-76
2021/12/10 09:41:33;;;;;;;13.25;2.22;;;4.50;99.90;;;;;;5053741;28;20036;-75
2021/12/10 09:43:59;;;;;;;8.57;2.80;;;4.50;99.90;;;;;;5050879;28;20395;-76
2021/12/10 09:46:25;;;;;;;9.35;2.35;;;4.50;99.90;;;;;;5050239;28;20095;-75
2021/12/10 09:48:51;;;;;;;9.63;2.38;;;4.50;99.90;;;;;;5048431;28;20025;-76
2021/12/10 09:51:26;;;;;;;5.88;2.00;;;4.50;99.90;;;;;;5047750;28;20041;-76
2021/12/10 09:53:56;;;;;;;7.57;2.47;;;4.50;99.90;;;;;;5053179;28;20032;-77
2021/12/10 09:56:24;;;;;;;13.30;2.50;;;4.50;99.90;;;;;;5051417;28;20028;-76
2021/12/10 09:58:53;;;;;;;9.50;2.47;;;4.50;99.90;;;;;;5052055;28;20032;-76
2021/12/10 10:01:31;;;;;;;4.88;1.70;;;4.40;99.90;;;;;;5052751;28;20514;-76
2021/12/10 10:04:01;;;;;;;12.45;2.10;;;4.40;99.90;;;;;;5052079;28;20041;-76
2021/12/10 10:06:29;;;;;;;6.97;1.88;;;4.40;99.90;;;;;;5051626;28;20509;-76
2021/12/10 10:08:55;;;;;;;9.40;1.60;;;4.40;99.90;;;;;;5051777;28;20208;-76
2021/12/10 10:11:25;;;;;;;9.30;2.05;;;4.40;99.90;;;;;;5054122;28;20112;-77
2021/12/10 10:13:53;;;;;;;9.25;1.77;;;4.50;99.90;;;;;;5052834;28;20029;-76
2021/12/10 10:16:20;;;;;;;5.88;1.50;;;4.50;99.90;;;;;;5052568;28;20390;-77
2021/12/10 10:18:47;;;;;;;12.57;1.80;;;4.50;99.90;;;;;;5053711;28;20027;-76
2021/12/10 10:21:20;;;;;;;6.50;2.00;;;4.60;99.90;;;;;;5046442;28;20453;-76
2021/12/10 10:23:47;;;;;;;10.65;2.17;;;4.60;99.90;;;;;;5042817;28;20032;-76
2021/12/10 10:26:17;;;;;;;6.38;2.80;;;4.60;99.90;;;;;;5042859;28;20036;-76
2021/12/10 10:28:45;;;;;;;15.48;2.72;;;4.60;99.90;;;;;;5053981;28;20025;-76
2021/12/10 10:31:18;;;;;;;16.77;2.38;;;4.60;99.90;;;;;;5052432;28;20067;-76
2021/12/10 10:33:45;;;;;;;10.30;2.33;;;4.60;99.90;;;;;;5047732;28;20017;-76
2021/12/10 10:36:19;;;;;;;12.70;3.08;;;4.60;99.90;;;;;;5051389;28;20483;-76
2021/12/10 10:38:48;;;;;;;8.60;2.17;;;4.50;99.90;;;;;;5052464;28;20083;-75
2021/12/10 10:41:15;;;;;;;8.32;2.13;;;4.50;99.90;;;;;;5052766;28;20389;-76
2021/12/10 10:43:40;;;;;;;10.00;2.72;;;4.50;99.90;;;;;;5053528;28;20090;-75
2021/12/10 10:46:06;;;;;;;7.53;2.13;;;4.60;99.90;;;;;;5052731;28;20502;-75
2021/12/10 10:48:32;;;;;;;9.48;1.73;;;4.60;99.90;;;;;;5050487;28;20028;-75
2021/12/10 10:51:06;;;;;;;10.90;2.15;;;4.70;99.90;;;;;;5051640;28;20049;-75
2021/12/10 10:53:44;;;;;;;8.02;2.00;;;4.70;99.90;;;;;;5047186;28;20104;-76
2021/12/10 10:56:18;;;;;;;9.65;2.20;;;4.80;99.90;;;;;;5044338;28;20033;-75
2021/12/10 10:58:54;;;;;;;11.52;1.92;;;4.90;99.90;;;;;;5049914;28;20079;-75
2021/12/10 11:01:40;;;;;;;11.40;1.48;;;5.00;99.90;;;;;;5039776;28;20352;-75
2021/12/10 11:04:15;;;;;;;4.80;1.63;;;5.10;99.90;;;;;;5035204;28;20028;-75
2021/12/10 11:06:45;;;;;;;13.50;1.67;;;5.20;99.90;;;;;;5052252;28;20186;-76
2021/12/10 11:09:20;;;;;;;8.30;1.25;;;5.30;99.90;;;;;;5052549;28;20036;-75
2021/12/10 11:11:55;;;;;;;6.97;1.20;;;5.40;99.90;;;;;;5052059;28;20096;-76
2021/12/10 11:14:27;;;;;;;7.68;1.30;;;5.50;99.90;;;;;;5052125;28;20028;-76
2021/12/10 11:17:01;;;;;;;5.28;1.48;;;5.60;99.90;;;;;;5050174;28;20025;-77
2021/12/10 11:19:29;;;;;;;9.88;1.70;;;5.60;99.90;;;;;;5052493;28;20075;-77
2021/12/10 11:21:59;;;;;;;12.35;1.40;;;5.70;99.90;;;;;;5051832;28;20036;-75
2021/12/10 11:24:45;;;;;;;10.18;1.15;;;5.70;99.90;;;;;;5045095;28;20083;-74
2021/12/10 11:27:21;;;;;;;8.02;1.73;;;5.80;99.90;;;;;;5051716;28;20496;-77
2021/12/10 11:29:50;;;;;;;6.85;1.00;;;5.80;99.90;;;;;;5052792;28;20410;-78
2021/12/10 11:32:18;;;;;;;7.68;1.23;;;5.90;99.90;;;;;;5044517;28;20398;-77
2021/12/10 11:34:56;;;;;;;8.65;1.85;;;5.90;99.90;;;;;;5050094;28;20047;-77
2021/12/10 11:37:59;;;;;;;7.25;1.52;;;5.90;99.90;;;;;;5052421;28;20031;-78
2021/12/10 11:40:50;;;;;;;8.70;1.10;;;5.90;99.90;;;;;;5049333;28;20108;-78
2021/12/10 11:43:44;;;;;;;8.20;1.13;;;6.00;99.90;;;;;;5039895;28;20029;-78
2021/12/10 11:48:57;;;;;;;7.60;1.15;;;6.00;99.90;;;;;;5049801;28;20114;-78
2021/12/10 11:51:31;;;;;;;8.63;1.13;;;6.00;99.90;;;;;;5038199;28;20053;-78
2021/12/10 11:54:00;;;;;;;9.55;1.10;;;6.00;99.90;;;;;;5052255;28;20162;-78
2021/12/10 11:56:38;;;;;;;5.97;1.10;;;6.00;99.90;;;;;;5052676;28;20036;-78
2021/12/10 11:59:10;;;;;;;7.90;1.30;;;6.00;99.90;;;;;;5052503;28;20021;-78
2021/12/10 12:02:16;;;;;;;8.82;1.75;;;6.00;99.90;;;;;;5051992;28;20088;-78
2021/12/10 12:04:51;;;;;;;6.85;0.85;;;5.90;99.90;;;;;;5052192;28;20515;-78
2021/12/10 12:07:35;;;;;;;7.13;1.77;;;5.90;99.90;;;;;;5049442;28;20026;-78
2021/12/10 12:10:26;;;;;;;7.50;1.45;;;5.90;99.90;;;;;;5035508;28;20044;-78
2021/12/10 12:12:59;;;;;;;5.55;1.10;;;6.00;99.90;;;;;;5053832;28;20037;-76
2021/12/10 12:15:33;;;;;;;5.75;1.70;;;5.90;99.90;;;;;;5046456;28;20434;-77
2021/12/10 12:18:05;;;;;;;6.97;1.10;;;6.00;99.90;;;;;;5053450;28;20025;-77
2021/12/10 12:20:42;;;;;;;7.97;1.75;;;6.00;99.90;;;;;;5050608;28;20056;-78
2021/12/10 12:26:13;;;;;;;8.50;1.52;;;6.00;99.90;;;;;;5055859;28;20437;-77
2021/12/10 12:28:45;;;;;;;6.38;1.45;;;5.90;99.90;;;;;;5052923;28;20028;-78
2021/12/10 12:31:30;;;;;;;10.43;2.22;;;5.90;99.90;;;;;;5053349;28;20494;-77
2021/12/10 12:34:18;;;;;;;9.15;1.20;;;6.00;99.90;;;;;;5055961;28;20475;-77
2021/12/10 12:36:52;;;;;;;7.95;1.55;;;6.00;99.90;;;;;;5055053;28;20025;-77
2021/12/10 12:39:36;;;;;;;10.40;1.40;;;6.00;99.90;;;;;;5053778;28;20418;-77
2021/12/10 12:42:16;;;;;;;7.40;1.27;;;6.00;99.90;;;;;;5047741;28;20114;-77
2021/12/10 12:44:42;;;;;;;10.00;1.73;;;6.00;99.90;;;;;;5056510;28;20041;-77
2021/12/10 12:47:15;;;;;;;9.65;1.23;;;6.00;99.90;;;;;;5044368;28;20070;-78
2021/12/10 12:49:46;;;;;;;5.45;1.35;;;5.90;99.90;;;;;;5055991;28;20547;-78
2021/12/10 12:52:23;;;;;;;7.55;1.27;;;5.90;99.90;;;;;;5055629;28;20049;-77
2021/12/10 12:55:17;;;;;;;8.23;1.58;;;5.90;99.90;;;;;;5055880;28;20379;-77
2021/12/10 12:57:57;;;;;;;10.43;1.70;;;5.90;99.90;;;;;;5055202;28;20037;-77
2021/12/10 13:00:46;;;;;;;5.70;1.40;;;5.80;99.90;;;;;;5055212;28;20029;-77
2021/12/10 13:03:32;;;;;;;5.13;1.20;;;5.90;99.90;;;;;;5045637;28;20112;-77
2021/12/10 13:06:10;;;;;;;4.68;1.17;;;5.80;99.90;;;;;;5039182;28;20048;-77
2021/12/10 13:08:39;;;;;;;9.02;1.38;;;5.80;99.90;;;;;;5052368;28;20024;-77
2021/12/10 13:11:24;;;;;;;7.30;0.93;;;5.80;99.90;;;;;;5040558;28;20052;-78
2021/12/10 13:14:13;;;;;;;9.80;1.48;;;5.80;99.90;;;;;;5054439;28;20021;-77
2021/12/10 13:16:46;;;;;;;3.70;1.38;;;5.70;99.90;;;;;;5054886;28;20116;-77